Time;durP1;ratioP1;P1;durP2;ratioP2;P2;SDS_P1;SDS_P2;PMS_P1;PMS_P2;Temp;Humidity;BMP_temperature;BMP_pressure;BME280_temperature;BME280_humidity;BME280_pressure;Samples;Min_cycle;Max_cycle;Signal;HPM_P1;HPM_P2
2020/12/11 00:00:33;;;;;;;21.27;15.17;;;2.50;91.40;;;;;;5012100;28;20230;-91
2020/12/11 00:03:00;;;;;;;21.97;15.70;;;2.60;91.30;;;;;;5015506;28;20218;-86
2020/12/11 00:05:26;;;;;;;21.50;14.87;;;2.60;91.30;;;;;;5015225;28;20327;-90
2020/12/11 00:07:52;;;;;;;19.93;14.33;;;2.80;91.00;;;;;;5025812;28;20585;-86
2020/12/11 00:10:19;;;;;;;20.33;14.30;;;2.90;90.60;;;;;;5021718;28;20206;-89
2020/12/11 00:12:50;;;;;;;20.00;14.10;;;2.80;90.50;;;;;;5026221;28;20223;-86
2020/12/11 00:15:17;;;;;;;20.57;15.33;;;2.70;90.70;;;;;;5024067;28;20543;-88
2020/12/11 00:17:43;;;;;;;20.33;14.83;;;2.80;90.80;;;;;;5030503;28;20219;-90
2020/12/11 00:20:10;;;;;;;20.27;14.63;;;2.70;90.60;;;;;;5023951;28;20199;-86
2020/12/11 00:22:37;;;;;;;20.50;15.10;;;2.60;90.80;;;;;;5027975;28;20524;-87
2020/12/11 00:25:04;;;;;;;20.13;14.67;;;2.70;91.10;;;;;;5029163;28;20249;-84
2020/12/11 00:27:30;;;;;;;21.30;15.23;;;2.80;90.90;;;;;;5026550;28;20232;-86
2020/12/11 00:29:57;;;;;;;21.13;15.13;;;2.80;90.90;;;;;;5021080;28;20207;-87
2020/12/11 00:32:24;;;;;;;20.03;14.30;;;2.80;90.70;;;;;;5025898;28;20234;-85
2020/12/11 00:34:50;;;;;;;19.50;14.27;;;2.80;90.70;;;;;;5026019;28;20199;-86
2020/12/11 00:37:17;;;;;;;20.93;14.87;;;2.80;90.70;;;;;;5021999;28;20677;-86
2020/12/11 00:39:43;;;;;;;20.63;15.43;;;2.90;90.60;;;;;;5022014;28;20198;-86
2020/12/11 00:42:10;;;;;;;20.23;14.67;;;2.80;90.20;;;;;;5023817;28;20226;-85
2020/12/11 00:44:36;;;;;;;22.57;15.43;;;2.80;90.60;;;;;;5030988;28;20214;-85
2020/12/11 00:47:04;;;;;;;20.07;14.43;;;2.80;90.90;;;;;;5025637;28;20219;-87
2020/12/11 00:49:31;;;;;;;19.07;13.80;;;2.90;90.70;;;;;;5030843;28;21433;-85
2020/12/11 00:51:57;;;;;;;19.63;14.43;;;3.00;90.60;;;;;;5018371;28;20222;-88
2020/12/11 00:54:24;;;;;;;19.77;14.77;;;3.00;90.50;;;;;;5025444;28;20567;-86
2020/12/11 00:56:50;;;;;;;18.97;13.77;;;3.10;90.50;;;;;;5030396;28;20257;-89
2020/12/11 00:59:16;;;;;;;19.77;14.70;;;2.90;90.40;;;;;;5026288;28;20230;-87
2020/12/11 01:01:43;;;;;;;19.43;14.13;;;2.90;90.50;;;;;;5026793;28;20242;-87
2020/12/11 01:04:11;;;;;;;21.00;14.57;;;2.90;90.70;;;;;;5022871;28;20225;-86
2020/12/11 01:06:37;;;;;;;18.67;14.10;;;2.90;90.70;;;;;;5015085;28;20219;-87
2020/12/11 01:09:04;;;;;;;20.13;13.87;;;2.90;90.80;;;;;;5022241;28;20213;-87
2020/12/11 01:11:31;;;;;;;20.17;14.47;;;2.90;90.80;;;;;;5025621;28;20226;-86
2020/12/11 01:13:57;;;;;;;19.67;14.63;;;2.90;90.80;;;;;;5026803;28;20206;-88
2020/12/11 01:16:24;;;;;;;19.57;13.63;;;2.90;90.80;;;;;;5025840;28;20230;-84
2020/12/11 01:18:50;;;;;;;19.70;14.47;;;2.90;90.90;;;;;;5028880;28;20202;-86
2020/12/11 01:21:18;;;;;;;22.07;14.97;;;2.80;90.90;;;;;;5032298;28;20232;-86
2020/12/11 01:23:44;;;;;;;18.30;13.80;;;2.80;91.20;;;;;;5029696;28;20244;-87
2020/12/11 01:26:11;;;;;;;19.97;14.37;;;2.90;91.00;;;;;;5025634;28;20219;-86
2020/12/11 01:28:38;;;;;;;19.70;14.37;;;2.90;90.90;;;;;;5024523;28;20245;-88
2020/12/11 01:31:04;;;;;;;19.63;14.33;;;2.70;91.30;;;;;;5027936;28;20242;-85
2020/12/11 01:33:31;;;;;;;21.40;13.93;;;2.80;91.30;;;;;;5020675;28;20226;-87
2020/12/11 01:35:57;;;;;;;21.30;14.53;;;2.60;91.40;;;;;;5028733;28;20235;-86
2020/12/11 01:38:25;;;;;;;19.53;14.43;;;2.80;91.60;;;;;;5033507;28;20209;-85
2020/12/11 01:40:51;;;;;;;17.57;13.03;;;2.70;91.40;;;;;;5022067;28;20225;-86
2020/12/11 01:43:20;;;;;;;18.43;13.53;;;2.70;91.40;;;;;;5018399;28;21862;-86
2020/12/11 01:45:47;;;;;;;18.63;12.97;;;2.80;91.10;;;;;;5026748;28;20203;-84
2020/12/11 01:48:14;;;;;;;19.77;14.27;;;2.90;91.00;;;;;;5024865;28;20747;-85
2020/12/11 01:50:40;;;;;;;17.27;12.70;;;2.90;90.70;;;;;;5021998;28;20213;-85
2020/12/11 01:53:09;;;;;;;19.63;14.10;;;3.00;90.80;;;;;;5027047;28;20653;-84
2020/12/11 01:55:38;;;;;;;18.07;13.47;;;3.00;90.70;;;;;;5026435;28;20213;-86
2020/12/11 01:58:10;;;;;;;19.07;13.57;;;3.00;90.70;;;;;;5021133;28;20203;-90
2020/12/11 02:00:40;;;;;;;19.37;13.33;;;3.00;90.50;;;;;;5024118;28;20246;-86
2020/12/11 02:03:08;;;;;;;19.17;13.70;;;3.00;90.70;;;;;;5029193;28;20564;-84
2020/12/11 02:05:35;;;;;;;17.30;13.13;;;3.10;90.60;;;;;;5023315;28;20220;-85
2020/12/11 02:08:01;;;;;;;19.03;14.10;;;3.00;90.60;;;;;;5021684;28;20576;-84
2020/12/11 02:10:28;;;;;;;21.70;14.23;;;2.90;90.50;;;;;;5022128;28;20198;-87
2020/12/11 02:12:55;;;;;;;19.17;12.90;;;2.80;91.00;;;;;;5024563;28;20226;-87
2020/12/11 02:15:22;;;;;;;19.47;14.07;;;2.80;91.50;;;;;;5015688;28;20206;-85
2020/12/11 02:17:49;;;;;;;18.93;13.13;;;2.70;91.50;;;;;;5025489;28;20230;-86
2020/12/11 02:20:16;;;;;;;19.77;13.63;;;2.80;91.30;;;;;;5023524;28;20195;-86
2020/12/11 02:22:43;;;;;;;20.23;13.77;;;2.80;91.30;;;;;;5026136;28;20427;-86
2020/12/11 02:25:10;;;;;;;21.13;14.67;;;2.70;91.40;;;;;;5025999;28;20624;-85
2020/12/11 02:27:38;;;;;;;21.40;13.97;;;2.70;91.50;;;;;;5025272;28;20225;-84
2020/12/11 02:30:05;;;;;;;21.53;14.43;;;2.50;92.00;;;;;;5019860;28;20562;-84
2020/12/11 02:32:31;;;;;;;22.53;14.67;;;2.40;92.10;;;;;;5021664;28;20230;-85
2020/12/11 02:34:58;;;;;;;21.70;14.87;;;2.40;92.20;;;;;;5020221;28;20203;-85
2020/12/11 02:37:24;;;;;;;21.67;14.77;;;2.30;92.70;;;;;;5023486;28;20225;-84
2020/12/11 02:39:51;;;;;;;23.87;15.70;;;2.40;92.40;;;;;;5021599;28;20194;-85
2020/12/11 02:42:18;;;;;;;24.30;16.10;;;2.30;92.50;;;;;;5023954;28;20229;-86
2020/12/11 02:44:44;;;;;;;23.27;15.23;;;2.10;93.00;;;;;;5026509;28;20592;-86
2020/12/11 02:47:14;;;;;;;23.87;14.90;;;2.00;93.10;;;;;;5026197;28;20230;-85
2020/12/11 02:49:40;;;;;;;23.17;15.50;;;2.00;93.00;;;;;;5026075;28;20281;-85
2020/12/11 02:52:07;;;;;;;23.87;15.23;;;2.00;93.10;;;;;;5024093;28;20228;-85
2020/12/11 02:54:33;;;;;;;22.23;15.03;;;1.90;93.10;;;;;;5025948;28;20214;-83
2020/12/11 02:57:01;;;;;;;24.83;16.43;;;2.00;93.10;;;;;;5020077;28;20260;-87
2020/12/11 02:59:27;;;;;;;26.40;16.13;;;1.90;93.50;;;;;;5018668;28;20229;-85
2020/12/11 03:01:54;;;;;;;26.57;16.33;;;2.00;93.50;;;;;;5020001;28;20238;-85
2020/12/11 03:04:20;;;;;;;26.70;17.13;;;2.00;93.30;;;;;;5018842;28;20210;-84
2020/12/11 03:06:47;;;;;;;28.83;17.87;;;1.90;93.80;;;;;;5016729;28;20245;-86
2020/12/11 03:09:13;;;;;;;27.30;17.33;;;1.80;93.50;;;;;;5029396;28;20233;-86
2020/12/11 03:11:40;;;;;;;29.17;18.87;;;1.90;93.50;;;;;;5024507;28;20226;-84
2020/12/11 03:14:07;;;;;;;27.97;17.90;;;1.80;93.50;;;;;;5026730;28;20206;-85
2020/12/11 03:16:34;;;;;;;29.27;18.30;;;1.70;93.90;;;;;;5017515;28;20715;-84
2020/12/11 03:19:00;;;;;;;28.93;18.47;;;1.60;94.20;;;;;;5015360;28;20199;-86
2020/12/11 03:21:27;;;;;;;29.97;18.10;;;1.40;94.30;;;;;;5024380;28;20244;-86
2020/12/11 03:23:54;;;;;;;29.93;18.40;;;1.30;94.30;;;;;;5017080;28;20711;-83
2020/12/11 03:26:20;;;;;;;28.90;18.27;;;1.30;94.50;;;;;;5023359;28;20696;-83
2020/12/11 03:28:48;;;;;;;32.03;18.87;;;1.20;94.60;;;;;;5030411;28;20204;-83
2020/12/11 03:31:16;;;;;;;30.33;18.80;;;1.20;95.00;;;;;;5022127;28;20307;-82
2020/12/11 03:33:42;;;;;;;32.20;19.83;;;1.20;94.90;;;;;;5019641;28;20689;-83
2020/12/11 03:36:09;;;;;;;31.03;17.83;;;1.20;94.90;;;;;;5029501;28;20240;-83
2020/12/11 03:38:36;;;;;;;28.00;17.93;;;1.20;94.90;;;;;;5026332;28;20234;-84
2020/12/11 03:41:02;;;;;;;29.17;17.43;;;1.20;95.00;;;;;;5028247;28;20224;-83
2020/12/11 03:43:29;;;;;;;28.80;18.33;;;1.10;95.20;;;;;;5027939;28;20856;-83
2020/12/11 03:45:55;;;;;;;27.87;17.20;;;1.20;95.10;;;;;;5025042;28;20202;-87
2020/12/11 03:48:22;;;;;;;30.93;18.13;;;1.10;95.40;;;;;;5040906;28;20216;-86
2020/12/11 03:50:49;;;;;;;28.67;17.93;;;1.10;95.40;;;;;;5026328;28;20570;-82
2020/12/11 03:53:15;;;;;;;27.80;17.47;;;1.00;95.40;;;;;;5034892;28;20201;-82
2020/12/11 03:55:42;;;;;;;26.80;16.73;;;1.00;95.50;;;;;;5030274;28;20202;-87
2020/12/11 03:58:08;;;;;;;26.60;16.37;;;1.00;95.60;;;;;;5036721;28;20273;-86
2020/12/11 04:00:35;;;;;;;27.37;15.97;;;1.10;95.50;;;;;;5031792;28;20584;-82
2020/12/11 04:03:02;;;;;;;29.27;16.53;;;1.10;95.40;;;;;;5020082;28;20208;-82
2020/12/11 04:05:29;;;;;;;25.60;16.20;;;1.10;95.30;;;;;;5017706;28;20229;-85
2020/12/11 04:07:55;;;;;;;27.07;16.57;;;1.10;95.10;;;;;;5013573;28;20833;-84
2020/12/11 04:10:22;;;;;;;24.80;16.17;;;1.10;95.00;;;;;;5014891;28;20213;-85
2020/12/11 04:12:48;;;;;;;27.57;16.77;;;1.10;94.90;;;;;;5014636;28;20227;-86
2020/12/11 04:15:15;;;;;;;26.20;16.23;;;1.10;95.20;;;;;;5015651;28;20217;-87
2020/12/11 04:17:41;;;;;;;25.83;16.87;;;1.10;95.10;;;;;;5015286;28;20416;-82
2020/12/11 04:20:08;;;;;;;24.47;16.33;;;1.00;95.00;;;;;;5014941;28;20205;-86
2020/12/11 04:22:35;;;;;;;24.47;16.27;;;1.00;95.10;;;;;;5014657;28;20223;-83
2020/12/11 04:25:02;;;;;;;27.27;16.73;;;1.00;95.00;;;;;;5012906;28;20235;-86
2020/12/11 04:27:28;;;;;;;26.90;16.93;;;0.90;95.10;;;;;;5013124;28;20591;-89
2020/12/11 04:29:54;;;;;;;23.73;15.67;;;0.90;95.10;;;;;;5015469;28;20216;-88
2020/12/11 04:32:21;;;;;;;25.37;16.20;;;0.90;95.10;;;;;;5013631;28;20237;-87
2020/12/11 04:34:47;;;;;;;25.57;16.17;;;0.90;95.10;;;;;;5013795;28;20688;-87
2020/12/11 04:37:15;;;;;;;25.30;16.40;;;0.90;95.00;;;;;;5016174;28;20235;-88
2020/12/11 04:39:43;;;;;;;28.30;16.93;;;1.00;95.10;;;;;;5012859;28;20307;-83
2020/12/11 04:42:11;;;;;;;27.63;17.17;;;1.10;94.90;;;;;;5015411;28;20325;-85
2020/12/11 04:44:39;;;;;;;26.03;16.03;;;1.10;94.60;;;;;;5013069;28;20233;-85
2020/12/11 04:47:06;;;;;;;24.67;15.87;;;1.10;94.30;;;;;;5012751;28;20829;-87
2020/12/11 04:49:34;;;;;;;24.03;15.80;;;1.20;94.30;;;;;;5015722;28;20584;-83
2020/12/11 04:52:04;;;;;;;24.27;14.87;;;1.30;94.30;;;;;;5013574;28;20240;-84
2020/12/11 04:54:36;;;;;;;25.03;16.97;;;1.30;94.30;;;;;;5015554;28;20545;-85
2020/12/11 04:57:08;;;;;;;25.43;15.67;;;1.30;93.90;;;;;;5012439;28;20248;-84
2020/12/11 04:59:34;;;;;;;25.27;15.03;;;1.30;94.10;;;;;;5013807;28;20268;-86
2020/12/11 05:02:08;;;;;;;24.10;14.90;;;1.30;93.70;;;;;;5014255;28;20229;-83
2020/12/11 05:04:37;;;;;;;23.23;14.93;;;1.50;93.50;;;;;;5015136;28;20237;-87
2020/12/11 05:07:03;;;;;;;22.43;14.77;;;1.40;93.10;;;;;;5013248;28;20228;-84
2020/12/11 05:09:30;;;;;;;22.93;15.20;;;1.50;93.10;;;;;;5013237;28;20664;-85
2020/12/11 05:11:56;;;;;;;23.23;15.00;;;1.40;93.20;;;;;;5014044;28;20460;-84
2020/12/11 05:14:25;;;;;;;22.37;14.97;;;1.40;93.20;;;;;;5014833;28;20557;-88
2020/12/11 05:17:03;;;;;;;24.63;15.40;;;1.50;93.20;;;;;;5014365;28;20235;-83
2020/12/11 05:19:31;;;;;;;24.87;15.57;;;1.50;93.30;;;;;;5014222;28;20217;-85
2020/12/11 05:22:09;;;;;;;22.37;15.73;;;1.50;93.30;;;;;;5015436;28;20228;-87
2020/12/11 05:24:44;;;;;;;23.17;15.13;;;1.30;93.20;;;;;;5015394;28;20596;-86
2020/12/11 05:27:41;;;;;;;22.00;14.50;;;1.20;93.30;;;;;;5014205;28;20811;-87
2020/12/11 05:30:24;;;;;;;23.53;14.70;;;1.20;93.50;;;;;;5014657;28;20216;-85
2020/12/11 05:32:53;;;;;;;22.77;14.13;;;1.20;93.80;;;;;;5015702;28;20222;-84
2020/12/11 05:35:28;;;;;;;23.73;15.43;;;1.30;93.60;;;;;;5015733;28;20217;-86
2020/12/11 05:38:01;;;;;;;26.13;15.77;;;1.30;93.50;;;;;;5014961;28;20581;-83
2020/12/11 05:40:33;;;;;;;25.60;16.23;;;1.40;93.20;;;;;;5015405;28;20446;-85
2020/12/11 05:43:08;;;;;;;23.67;15.50;;;1.30;93.50;;;;;;5012862;28;20242;-87
2020/12/11 05:45:37;;;;;;;23.67;15.57;;;1.30;93.70;;;;;;5012646;28;21248;-85
2020/12/11 05:48:05;;;;;;;26.87;15.97;;;1.30;93.70;;;;;;5015042;28;20231;-87
2020/12/11 05:50:31;;;;;;;23.43;14.87;;;1.30;93.70;;;;;;5019486;28;20732;-84
2020/12/11 05:53:00;;;;;;;26.73;16.80;;;1.40;93.60;;;;;;5025638;28;20312;-86
2020/12/11 05:55:26;;;;;;;25.83;16.67;;;1.30;93.60;;;;;;5019975;28;20556;-87
2020/12/11 05:57:56;;;;;;;24.57;15.33;;;1.40;93.70;;;;;;5021832;28;20228;-89
2020/12/11 06:00:22;;;;;;;27.53;16.90;;;1.40;93.60;;;;;;5021096;28;20818;-86
2020/12/11 06:02:51;;;;;;;25.57;16.40;;;1.40;93.50;;;;;;5017116;28;20225;-88
2020/12/11 06:05:18;;;;;;;26.93;16.47;;;1.40;93.60;;;;;;5025991;28;20217;-86
2020/12/11 06:07:46;;;;;;;25.20;15.63;;;1.50;93.60;;;;;;5022652;28;20236;-86
2020/12/11 06:10:14;;;;;;;24.10;15.87;;;1.60;93.40;;;;;;5028528;28;20213;-89
2020/12/11 06:12:41;;;;;;;24.87;16.07;;;1.60;93.40;;;;;;5021794;28;20231;-87
2020/12/11 06:15:16;;;;;;;24.20;15.60;;;1.60;93.10;;;;;;5027867;28;20581;-89
2020/12/11 06:17:48;;;;;;;26.00;16.77;;;1.60;93.10;;;;;;5023762;28;20222;-83
2020/12/11 06:20:17;;;;;;;26.67;16.43;;;1.50;92.60;;;;;;5029581;28;20235;-90
2020/12/11 06:26:05;;;;;;;23.53;15.33;;;1.30;93.60;;;;;;5041017;28;20233;-89
2020/12/11 06:28:42;;;;;;;25.53;16.73;;;1.20;93.80;;;;;;5031525;28;20199;-89
2020/12/11 06:31:09;;;;;;;24.13;15.63;;;1.30;93.50;;;;;;5027062;28;20223;-85
2020/12/11 06:33:37;;;;;;;23.83;15.77;;;1.40;93.40;;;;;;5029581;28;20198;-84
2020/12/11 06:36:06;;;;;;;24.37;15.97;;;1.40;93.00;;;;;;5030149;28;20564;-86
2020/12/11 06:42:05;;;;;;;25.67;16.07;;;1.20;93.40;;;;;;5029888;28;20709;-85
2020/12/11 06:44:33;;;;;;;24.93;16.33;;;1.30;93.60;;;;;;5036590;28;20210;-87
2020/12/11 06:47:04;;;;;;;26.77;16.67;;;1.20;93.70;;;;;;5032050;28;20237;-85
2020/12/11 06:49:30;;;;;;;26.07;15.97;;;1.30;93.80;;;;;;5029066;28;20196;-85
2020/12/11 06:52:11;;;;;;;24.60;15.47;;;1.30;93.50;;;;;;5026198;28;20220;-84
2020/12/11 06:55:05;;;;;;;27.13;16.80;;;1.10;93.70;;;;;;5031501;28;20216;-83
2020/12/11 06:57:33;;;;;;;28.33;16.43;;;1.10;93.80;;;;;;5032414;28;20310;-88
2020/12/11 07:00:20;;;;;;;25.60;17.00;;;1.00;93.90;;;;;;5020930;28;20230;-85
2020/12/11 07:02:46;;;;;;;28.17;16.83;;;1.00;94.20;;;;;;5024741;28;20218;-89
2020/12/11 07:05:13;;;;;;;24.63;15.87;;;1.00;94.20;;;;;;5031444;28;20452;-87
2020/12/11 07:07:41;;;;;;;24.73;16.13;;;0.90;94.20;;;;;;5025007;28;20227;-88
2020/12/11 07:10:08;;;;;;;24.07;15.80;;;0.80;94.20;;;;;;5030433;28;20229;-87
2020/12/11 07:12:34;;;;;;;25.50;15.43;;;0.90;94.20;;;;;;5030498;28;20685;-88
2020/12/11 07:15:14;;;;;;;23.80;15.33;;;1.00;94.20;;;;;;5028454;28;20210;-86
2020/12/11 07:17:42;;;;;;;26.83;15.97;;;1.00;94.20;;;;;;5038163;28;20224;-89
2020/12/11 07:20:09;;;;;;;24.40;15.30;;;1.00;94.20;;;;;;5049030;28;20192;-90
2020/12/11 07:22:36;;;;;;;25.50;15.57;;;1.00;94.20;;;;;;5034448;28;20229;-89
2020/12/11 07:25:03;;;;;;;22.70;15.00;;;1.00;94.50;;;;;;5028959;28;20231;-87
2020/12/11 07:27:30;;;;;;;27.17;15.47;;;1.00;94.20;;;;;;5034964;28;20224;-91
2020/12/11 07:29:57;;;;;;;23.40;14.80;;;1.10;94.20;;;;;;5028277;28;20199;-87
2020/12/11 07:32:24;;;;;;;26.33;15.50;;;1.20;94.30;;;;;;5015779;28;20694;-84
2020/12/11 07:34:50;;;;;;;24.60;15.10;;;1.30;94.10;;;;;;5029593;28;20209;-86
2020/12/11 07:37:17;;;;;;;24.43;16.10;;;1.40;93.50;;;;;;5021598;28;20225;-87
2020/12/11 07:39:43;;;;;;;27.17;16.00;;;1.50;93.10;;;;;;5019878;28;20208;-86
2020/12/11 07:42:10;;;;;;;25.23;15.57;;;1.40;93.20;;;;;;5028787;28;20218;-90
2020/12/11 07:44:38;;;;;;;24.97;15.33;;;1.50;93.30;;;;;;5031219;28;20221;-85
2020/12/11 07:47:07;;;;;;;26.33;15.53;;;1.60;93.00;;;;;;5033655;28;20232;-85
2020/12/11 07:49:34;;;;;;;23.17;15.47;;;1.50;93.20;;;;;;5029635;28;20211;-88
2020/12/11 07:52:02;;;;;;;25.90;15.50;;;1.50;93.10;;;;;;5036282;28;20677;-86
2020/12/11 07:54:34;;;;;;;23.47;15.03;;;1.50;92.90;;;;;;5024954;28;20303;-86
2020/12/11 07:57:08;;;;;;;24.77;15.10;;;1.40;93.30;;;;;;5033266;28;20269;-86
2020/12/11 07:59:36;;;;;;;25.17;16.00;;;1.50;93.10;;;;;;5036371;28;20320;-90
2020/12/11 08:02:04;;;;;;;24.47;15.40;;;1.50;93.10;;;;;;5025518;28;20233;-87
2020/12/11 08:04:36;;;;;;;24.27;15.57;;;1.60;93.00;;;;;;5027040;28;20726;-86
2020/12/11 08:07:03;;;;;;;25.97;15.00;;;1.60;92.70;;;;;;5031029;28;20260;-87
2020/12/11 08:09:30;;;;;;;24.17;15.67;;;1.50;92.60;;;;;;5028358;28;20658;-88
2020/12/11 08:12:10;;;;;;;29.00;15.63;;;1.60;92.80;;;;;;5028133;28;20229;-83
2020/12/11 08:14:40;;;;;;;23.73;15.00;;;1.70;92.80;;;;;;5038357;28;20554;-82
2020/12/11 08:17:07;;;;;;;24.87;14.93;;;1.70;92.40;;;;;;5035570;28;20231;-86
2020/12/11 08:19:34;;;;;;;21.03;14.40;;;1.80;92.60;;;;;;5034278;28;20212;-86
2020/12/11 08:22:11;;;;;;;23.60;14.13;;;1.80;92.20;;;;;;5031924;28;20313;-85
2020/12/11 08:24:37;;;;;;;23.10;14.13;;;1.80;92.30;;;;;;5033779;28;20236;-85
2020/12/11 08:27:04;;;;;;;21.37;13.83;;;1.70;92.40;;;;;;5033643;28;20233;-85
2020/12/11 08:29:30;;;;;;;21.67;14.27;;;1.70;92.40;;;;;;5027932;28;20331;-85
2020/12/11 08:31:58;;;;;;;22.90;13.67;;;1.70;92.60;;;;;;5034959;28;20241;-84
2020/12/11 08:34:29;;;;;;;22.30;13.73;;;1.80;92.60;;;;;;5038204;28;20213;-87
2020/12/11 08:37:03;;;;;;;21.70;13.13;;;1.90;92.20;;;;;;5031768;28;20240;-89
2020/12/11 08:39:29;;;;;;;20.60;13.13;;;2.00;92.20;;;;;;5039317;28;20206;-91
2020/12/11 08:42:08;;;;;;;20.77;13.03;;;2.00;92.00;;;;;;5044596;28;20221;-89
2020/12/11 08:44:56;;;;;;;20.73;12.83;;;2.00;92.00;;;;;;5028291;28;20235;-89
2020/12/11 08:50:21;;;;;;;17.20;11.80;;;2.20;91.70;;;;;;5018451;28;20297;-86
2020/12/11 08:52:48;;;;;;;19.00;12.60;;;2.30;91.40;;;;;;5019830;28;20711;-86
2020/12/11 08:55:14;;;;;;;20.07;13.10;;;2.40;91.00;;;;;;5022527;28;20510;-82
2020/12/11 08:57:41;;;;;;;19.20;12.70;;;2.20;91.30;;;;;;5028805;28;20315;-86
2020/12/11 09:00:08;;;;;;;16.90;11.47;;;2.30;91.40;;;;;;5028458;28;20222;-84
2020/12/11 09:02:35;;;;;;;21.17;13.37;;;2.40;91.20;;;;;;5028064;28;20261;-85
2020/12/11 09:05:02;;;;;;;20.47;12.67;;;2.50;91.00;;;;;;5027604;28;20254;-84
2020/12/11 09:07:29;;;;;;;19.50;11.73;;;2.50;91.00;;;;;;5031770;28;20218;-88
2020/12/11 09:09:55;;;;;;;17.97;11.57;;;2.60;90.90;;;;;;5028584;28;20670;-87
2020/12/11 09:12:21;;;;;;;17.60;11.80;;;2.80;90.90;;;;;;5028286;28;20585;-86
2020/12/11 09:14:48;;;;;;;14.87;10.67;;;2.90;90.30;;;;;;5027795;28;20203;-85
2020/12/11 09:17:14;;;;;;;15.93;11.03;;;2.80;90.00;;;;;;5027851;28;20243;-84
2020/12/11 09:19:42;;;;;;;15.53;11.50;;;2.80;89.50;;;;;;5028690;28;20208;-84
2020/12/11 09:22:08;;;;;;;17.43;11.10;;;2.80;90.10;;;;;;5022871;28;20237;-87
2020/12/11 09:24:35;;;;;;;15.93;11.33;;;3.00;89.80;;;;;;5030452;28;20313;-87
2020/12/11 09:27:01;;;;;;;14.97;10.57;;;3.20;87.80;;;;;;5027678;28;20732;-86
2020/12/11 09:29:30;;;;;;;16.93;11.47;;;3.20;87.80;;;;;;5023726;28;20199;-86
2020/12/11 09:31:58;;;;;;;15.97;11.00;;;3.40;88.00;;;;;;5028033;28;20234;-85
2020/12/11 09:34:24;;;;;;;15.73;10.83;;;3.40;87.00;;;;;;5025751;28;20209;-91
2020/12/11 09:36:51;;;;;;;15.47;10.67;;;3.20;87.10;;;;;;5023947;28;20247;-91
2020/12/11 09:39:19;;;;;;;13.57;9.27;;;3.10;87.80;;;;;;5030953;28;20664;-87
2020/12/11 09:41:48;;;;;;;14.50;9.77;;;3.20;87.80;;;;;;5022298;28;20684;-86
2020/12/11 09:44:39;;;;;;;13.90;10.33;;;3.40;88.00;;;;;;5022952;28;20218;-87
2020/12/11 09:47:37;;;;;;;14.37;10.43;;;3.40;87.00;;;;;;5021621;28;20218;-86
2020/12/11 09:50:14;;;;;;;13.27;9.87;;;3.90;85.30;;;;;;5021076;28;20256;-87
2020/12/11 09:52:54;;;;;;;13.93;10.23;;;3.90;82.60;;;;;;5026288;28;20288;-88
2020/12/11 09:55:20;;;;;;;15.07;9.77;;;3.80;82.90;;;;;;5024298;28;20248;-88
2020/12/11 09:57:47;;;;;;;13.00;9.20;;;3.80;83.30;;;;;;5022888;28;20298;-86
2020/12/11 10:00:13;;;;;;;13.00;9.57;;;3.80;83.60;;;;;;5027099;28;20218;-86
2020/12/11 10:02:56;;;;;;;13.63;10.00;;;3.70;84.00;;;;;;5025378;28;20230;-89
2020/12/11 10:05:23;;;;;;;17.63;10.90;;;3.80;84.60;;;;;;5024417;28;20418;-88
2020/12/11 10:07:50;;;;;;;17.50;10.03;;;3.30;84.90;;;;;;5027067;28;20233;-88
2020/12/11 10:10:18;;;;;;;15.60;10.00;;;3.40;86.30;;;;;;5024080;28;20209;-88
2020/12/11 10:12:45;;;;;;;13.60;9.63;;;3.40;84.90;;;;;;5025546;28;20255;-87
2020/12/11 10:15:11;;;;;;;14.10;10.57;;;3.50;85.90;;;;;;5030764;28;20293;-89
2020/12/11 10:17:38;;;;;;;14.70;9.73;;;3.50;85.00;;;;;;5025662;28;20731;-86
2020/12/11 10:20:05;;;;;;;13.50;9.63;;;3.30;86.20;;;;;;5026352;28;20222;-86
2020/12/11 10:22:31;;;;;;;13.67;9.97;;;3.40;86.20;;;;;;5029865;28;20709;-85
2020/12/11 10:24:58;;;;;;;12.13;9.60;;;3.50;84.80;;;;;;5021065;28;20377;-85
2020/12/11 10:27:25;;;;;;;14.87;9.70;;;3.50;84.80;;;;;;5028876;28;20660;-86
2020/12/11 10:29:51;;;;;;;11.77;9.37;;;3.70;85.20;;;;;;5023403;28;20289;-88
2020/12/11 10:32:20;;;;;;;12.60;8.67;;;3.80;84.40;;;;;;5023360;28;20222;-87
2020/12/11 10:34:46;;;;;;;15.70;10.00;;;3.80;84.30;;;;;;5026721;28;20808;-84
2020/12/11 10:37:13;;;;;;;19.27;9.70;;;3.60;84.30;;;;;;5022074;28;20216;-86
2020/12/11 10:39:40;;;;;;;14.73;10.20;;;3.80;84.10;;;;;;5030675;28;20598;-88
2020/12/11 10:42:07;;;;;;;14.20;10.27;;;3.90;82.70;;;;;;5026917;28;20280;-86
2020/12/11 10:44:34;;;;;;;14.93;10.37;;;3.80;84.50;;;;;;5026615;28;20194;-86
2020/12/11 10:47:00;;;;;;;13.17;9.87;;;4.30;82.20;;;;;;5026712;28;20233;-86
2020/12/11 10:49:27;;;;;;;14.10;10.43;;;4.00;82.80;;;;;;5031425;28;20202;-91
2020/12/11 10:51:53;;;;;;;12.53;9.30;;;4.20;81.40;;;;;;5033481;28;20237;-85
2020/12/11 10:54:22;;;;;;;12.43;8.97;;;4.70;79.60;;;;;;5027562;28;20205;-85
2020/12/11 10:56:48;;;;;;;15.03;9.90;;;4.70;79.50;;;;;;5029699;28;20249;-89
2020/12/11 10:59:16;;;;;;;57.83;43.23;;;4.90;77.40;;;;;;5027241;28;20222;-87
2020/12/11 11:01:42;;;;;;;14.43;10.27;;;4.40;79.30;;;;;;5025611;28;20230;-90
2020/12/11 11:04:09;;;;;;;12.97;9.83;;;4.40;79.40;;;;;;5026251;28;20199;-86
2020/12/11 11:06:37;;;;;;;14.83;10.33;;;4.40;79.50;;;;;;5025661;28;20479;-86
2020/12/11 11:11:56;;;;;;;17.83;10.57;;;3.80;82.90;;;;;;5018699;28;20226;-87
2020/12/11 11:17:44;;;;;;;16.60;9.70;;;4.10;81.70;;;;;;5026048;28;20230;-90
2020/12/11 11:20:15;;;;;;;14.53;10.33;;;4.00;81.80;;;;;;5032618;28;20241;-88
2020/12/11 11:22:49;;;;;;;13.60;9.37;;;3.90;82.70;;;;;;5025361;28;20283;-86
2020/12/11 11:28:01;;;;;;;14.17;9.63;;;4.10;82.00;;;;;;5030228;28;20527;-85
2020/12/11 11:30:32;;;;;;;14.30;9.90;;;4.20;82.00;;;;;;5020885;28;20214;-86
2020/12/11 11:33:00;;;;;;;14.40;10.17;;;4.20;81.10;;;;;;5027314;28;20569;-93
2020/12/11 11:35:28;;;;;;;12.20;9.17;;;4.00;82.00;;;;;;5031758;28;20207;-89
2020/12/11 11:37:55;;;;;;;13.13;9.80;;;3.80;81.40;;;;;;5028622;28;20304;-87
2020/12/11 11:40:26;;;;;;;13.67;9.30;;;3.70;82.80;;;;;;5032640;28;20233;-83
2020/12/11 11:42:52;;;;;;;14.07;9.47;;;3.50;83.80;;;;;;5027615;28;20239;-86
2020/12/11 11:45:20;;;;;;;12.70;9.40;;;3.60;83.60;;;;;;5033764;28;20234;-91
2020/12/11 11:47:51;;;;;;;13.40;9.13;;;3.70;83.60;;;;;;5024375;28;20705;-87
2020/12/11 11:50:36;;;;;;;14.70;9.43;;;3.80;81.70;;;;;;5035376;28;20626;-89
2020/12/11 11:53:04;;;;;;;15.40;9.30;;;3.60;82.70;;;;;;5015834;28;20235;-85
2020/12/11 11:55:30;;;;;;;14.60;9.20;;;3.80;82.40;;;;;;5024901;28;20202;-88
2020/12/11 11:57:57;;;;;;;13.67;9.37;;;3.90;82.60;;;;;;5025395;28;20224;-88
2020/12/11 12:00:24;;;;;;;14.23;9.97;;;4.00;82.90;;;;;;5023244;28;20231;-89
2020/12/11 12:02:51;;;;;;;21.13;14.37;;;4.20;82.00;;;;;;5028530;28;20214;-90
2020/12/11 12:05:17;;;;;;;19.93;10.80;;;4.40;81.40;;;;;;5017772;28;20618;-87
2020/12/11 12:07:44;;;;;;;14.70;10.53;;;3.90;82.60;;;;;;5027933;28;20226;-88
2020/12/11 12:10:10;;;;;;;14.27;10.33;;;3.90;83.50;;;;;;5032854;28;20199;-88
2020/12/11 12:12:38;;;;;;;16.17;10.63;;;4.30;83.50;;;;;;5040236;28;20230;-87
2020/12/11 12:15:28;;;;;;;14.53;10.30;;;4.50;82.30;;;;;;5052944;28;20226;-86
2020/12/11 12:17:59;;;;;;;14.83;10.53;;;4.40;81.80;;;;;;5028037;28;20209;-88
2020/12/11 12:20:35;;;;;;;16.30;10.63;;;4.70;80.10;;;;;;5029888;28;20290;-88
2020/12/11 12:31:16;;;;;;;15.13;10.10;;;5.50;76.20;;;;;;5026808;28;20408;-87
2020/12/11 12:39:29;;;;;;;14.40;9.87;;;4.90;77.20;;;;;;5027346;28;20288;-88
2020/12/11 12:44:40;;;;;;;17.37;10.43;;;4.70;77.20;;;;;;5016110;28;20221;-86
2020/12/11 12:47:07;;;;;;;13.17;10.27;;;4.50;78.70;;;;;;5019510;28;20223;-88
2020/12/11 12:49:35;;;;;;;14.20;10.00;;;4.00;80.30;;;;;;5026949;28;20218;-91
2020/12/11 12:52:02;;;;;;;13.83;10.00;;;3.90;81.70;;;;;;5034130;28;20245;-90
2020/12/11 12:54:28;;;;;;;15.37;10.60;;;3.80;81.70;;;;;;5025209;28;20202;-92
2020/12/11 12:56:57;;;;;;;16.70;11.30;;;3.80;82.40;;;;;;5024597;28;20670;-88
2020/12/11 12:59:32;;;;;;;15.80;10.50;;;3.80;82.50;;;;;;5025044;28;20281;-92
2020/12/11 13:02:23;;;;;;;16.67;11.23;;;3.80;83.00;;;;;;5027964;28;20693;-90
2020/12/11 13:05:04;;;;;;;17.53;10.90;;;3.70;84.30;;;;;;5029290;28;20198;-90
2020/12/11 13:07:30;;;;;;;19.80;12.17;;;3.70;83.20;;;;;;5035487;28;20225;-87
2020/12/11 13:09:57;;;;;;;16.47;11.53;;;3.60;83.70;;;;;;5034696;28;20213;-85
2020/12/11 13:12:24;;;;;;;17.63;12.47;;;3.40;84.50;;;;;;5025371;28;20337;-85
2020/12/11 13:14:50;;;;;;;17.60;11.60;;;3.30;85.90;;;;;;5033081;28;20202;-87
2020/12/11 13:17:16;;;;;;;16.43;11.20;;;3.50;84.70;;;;;;5030556;28;20587;-85
2020/12/11 13:19:43;;;;;;;17.47;12.10;;;3.60;84.70;;;;;;5027598;28;20274;-86